Terminal Aerodrome Forecast
Issued by NWS Milwaukee/Sullivan, WI

Home | Current Version | Previous Version | Text Only | Print | Product List | Glossary On
Versions: 1 2 3 4 5 6 7 8 9 10 11 12 13 14 15 16 17 18 19 20 21 22 23 24 25
000
FTUS43 KMKX 310902 AAA
TAFMSN
TAF AMD
KMSN 310902Z 3109/0106 34015G25KT P6SM SCT025 OVC035
     FM310930 34015G25KT 1SM -SHSN BKN025
     FM311300 34016G25KT P6SM BKN025
     FM311500 35020G34KT P6SM SCT025
     FM312000 36021G31KT P6SM FEW035
     FM312300 36014G22KT P6SM SKC
     FM010100 36009KT P6SM SKC=

USA.gov is the U.S. government's official web portal to all federal, state and local government web resources and services.